Kirchberg-Wetter.de


Hier erfahren Sie, wie das Wetter wird...


WebCam am Fuchsberg more information WebCam am Fuchsberg


Thunder radar more information blitzortung!


Rain radar more information rain snow radar


Besuchen Sie unsere anderen Wetter Stationen:

Template documentation
and downloads

And another site



Es ist keine erhöhte Aufmerksamkeit aufgrund des Wetters notwendig.    Es gibt keine Warnungen.

METAR-Meldungen aus der Umgebung

   
EHVK - Volkel Rnlafb, Netherlands
Entfernung von der Station bis: SW 18 km
Aktualisierung: 24-10-2021 09:55
Klar  
Klar  
   Wind: SO 9.3 km/h
Wind: SO 9.3 km/h
Temperatur: 6°C
Gefühlt: 4°C
Taupunkt: 4°C
Luftfeuchte: 87%
Luftdruck: 1024 hPa
Bewölkt: Klar
Sichtbarkeit: More than 10 km
Bewölkung: Klar
EHVK 240755Z AUTO 13005KT 9999 NCD 06/04 Q1024 BLU
EDLV - Niederrhein, Germany
Entfernung von der Station bis: SO 25 km
Aktualisierung: 24-10-2021 09:50
Klar  
Klar  
   Wind: SO 13 km/h
Wind: SO 13 km/h
Temperatur: 6°C
Gefühlt: 3°C
Taupunkt: 4°C
Luftfeuchte: 87%
Luftdruck: 1025 hPa
Sichtbarkeit: More than 10 km
Bewölkung: Klar
EDLV 240750Z 14007KT 110V170 CAVOK 06/04 Q1025
EHDL - Deelen Rnlafb, Netherlands
Entfernung von der Station bis: N 35 km
Aktualisierung: 24-10-2021 09:55
Klar  
Klar  
   Wind: SO 13 km/h
Wind: SO 13 km/h
Temperatur: 6°C
Gefühlt: 3°C
Taupunkt: 5°C
Luftfeuchte: 93%
Luftdruck: 1024 hPa
Bewölkt: Klar
Sichtbarkeit: More than 10 km
Bewölkung: Klar
EHDL 240755Z AUTO 14007KT 080V230 9999 NCD 06/05 Q1024 BLU
EHEH - Eindhoven Rnlafb, Netherlands
Entfernung von der Station bis: SW 48 km
Aktualisierung: 24-10-2021 09:55
leicht bewölkt  
leicht bewölkt  
   Wind: SO 13 km/h
Wind: SO 13 km/h
Temperatur: 6°C
Gefühlt: 3°C
Taupunkt: 4°C
Luftfeuchte: 87%
Luftdruck: 1024 hPa
Bewölkt: leicht bewölkt
Sichtbarkeit: More than 10 km
Bewölkung: leicht bewölkt 41000 ft
EHEH 240755Z AUTO 13007KT 090V190 9999 FEW410 06/04 Q1024 BLU NOSIG
EHGR - Gilze-Rijen Rnla, Netherlands
Entfernung von der Station bis: WSW 70 km
Aktualisierung: 24-10-2021 09:55
Klar  
Klar  
   Wind: SO 9.3 km/h
Wind: SO 9.3 km/h
Temperatur: 5°C
Gefühlt: 3°C
Taupunkt: 4°C
Luftfeuchte: 93%
Luftdruck: 1024 hPa
Bewölkt: Klar
Sichtbarkeit: More than 10 km
Bewölkung: Klar
EHGR 240755Z AUTO 14005KT 9999 NCD 05/04 Q1024 BLU
EBBL - Kleine-Brogel(Ba, Belgium
Entfernung von der Station bis: SSW 71 km
Aktualisierung: 24-10-2021 09:55
Klar  
Klar  
   Wind: variiert 3.7 km/h
Wind: variiert 3.7 km/h
Temperatur: 5°C
Taupunkt: 4°C
Luftfeuchte: 93%
Luftdruck: 1024 hPa
Bewölkt: Klar
Sichtbarkeit: More than 10 km
Bewölkung: Klar
EBBL 240755Z AUTO VRB02KT 9999 NCD 05/04 Q1024 BLU

Script entwickelt von  Saratoga-weather.org Angepasst für das Template von  Weerstation Leuven

Sie finden unser Wetter-Infos auch auf:

Weather Underground

WeatherlinkIP

Wetternetz-Sachsen

Von uns verwendete Ausrüstung:

Wetterstation
Davis Vantage Pro2 Plus

Wetterprogramm
Meteobridge

WetterComputer
TP-Link TL-MR3020

Davis Vantage Pro2 Plus

Meteobridge

TP-Link TL-MR3020